x

Western Caribbean - 195 Nm Wsw Of Negril Jamiaca (42057) Wave Buoy

3:50 - Sun 3rd May 2015 All times are UTC.

  • Sig Wave height 3.6ft
  • Swell Direction
  • Peak Period 8s
  • Average Period 6s
  • Wind
    11mph, 13mph gusts
  • Sea Temp 83°f
  • Ar Temp 82°f
  • Sea Pressure 1013.3mb

More Historic Weather Station data

Upgrade to MSW Pro to gain access to the past 30 days of data for over 8000 Wavebouys and Weather Stations around the globe.

Join Pro

Comparision Forecast

View Surf forecast
   
Dom 05/03 3:50 3.5ft 8s 6s 11 13 mph 1013.3mb 83f 82f
2:50 4ft 8s 6s 11
mph
1013.7mb 83f 82f
1:50 4ft 8s 6s 11 16 mph 1013.4mb 83f 82f
12:50 3.5ft 9s 6s 13 16 mph 1012.4mb 83f 82f
11:50 3.5ft 8s 6s 11 16 mph 1012mb 83f 82f
10:50 4ft 9s 6s 9 11 mph 1011.6mb 83f 81f
9:50 3.5ft 9s 6s 7 11 mph 1011.2mb 83f 81f
8:50 4ft 9s 5s 11 13 mph 1010.7mb 83f 81f
7:50 3.5ft 9s 5s 13 16 mph 1010.4mb 83f 81f
6:50 3.5ft 9s 5s 11 13 mph 1011mb 83f 81f
5:50 3.5ft 9s 5s 11 13 mph 1011.6mb 83f 82f
4:50 3.5ft 9s 6s 11 13 mph 1012.3mb 83f 82f
3:50 3.5ft 9s 6s 11 13 mph 1012.3mb 83f 82f
2:50 3ft 8s 5s 11 13 mph 1011.8mb 83f 82f
1:50 3ft 8s 5s 11 13 mph 1011.7mb 83f 82f
12:50 3.5ft 9s 5s 11 13 mph 1011mb 84f 82f
Sáb 05/02 11:50 3ft 6s 5s 11 13 mph 1010.4mb 84f 82f
10:50 2.5ft 10s 5s 9 11 mph 1010mb 83f 82f
9:50 3ft 9s 6s 9 11 mph 1009.9mb 84f 82f
8:50 3ft 9s 6s 9 13 mph 1010.1mb 84f 82f
7:50 3.5ft 10s 6s 7 9 mph 1010.7mb 84f 82f
6:50 3.5ft 9s 6s 9 11 mph 1011.4mb 84f 82f
5:50 3.5ft 9s 6s 9
mph
1012.1mb 84f 82f
4:50 3.5ft 7s 6s 7 9 mph 1012.7mb 84f 82f
3:50 3.5ft 7s 6s 7
mph
1012.8mb 84f 82f
2:50 3.5ft 9s 6s 7 9 mph 1012.7mb 84f 82f
1:50 4ft 8s 6s 4 7 mph 1012.8mb 83f 82f
12:50 4.5ft 8s 7s 4 7 mph 1012.2mb 83f 82f
11:50 4ft 9s 6s 4 7 mph 1011.6mb 83f 81f
10:50 3.5ft 9s 6s 4
mph
1011.2mb 83f 81f
9:50 3.5ft 9s 6s 2 4 mph 1010.9mb 83f 81f
8:50 3.5ft 9s 7s  -  2 mph 1010.7mb 83f 81f
7:50 4ft 8s 7s 2 4 mph 1010.9mb 83f 81f
6:50 4.5ft 9s 7s  -  2 mph 1011.4mb 83f 81f
5:50 4ft 8s 7s 4
mph
1012mb 83f 82f
4:50 4.5ft 9s 7s 2 4 mph 1012.9mb 83f 82f
3:50 4.5ft 9s 7s 7 9 mph 1013mb 83f 82f
2:50 4.5ft 9s 7s 7 9 mph 1012.6mb 83f 82f
1:50 4.5ft 9s 7s 7 9 mph 1012mb 83f 82f
12:50 4ft 9s 7s 7 9 mph 1011.3mb 83f 82f
Sex 05/01 11:50 4ft 9s 6s 2 4 mph 1010.6mb 84f 82f
10:50 3.5ft 9s 6s 4 7 mph 1010mb 84f 82f
9:50 4ft 8s 7s 2 4 mph 1009.7mb 84f 82f
8:50 3.5ft 9s 6s 4 7 mph 1009.7mb 84f 82f
7:50 3.5ft 9s 6s 7 9 mph 1010.2mb 84f 82f
6:50 3.5ft 9s 6s 9 11 mph 1011mb 84f 82f
5:50 3.5ft 9s 6s 9 11 mph 1012.3mb 84f 82f
4:50 3.5ft 9s 6s 9 11 mph 1012.9mb 83f 82f
3:50 3.5ft 9s 6s 11 13 mph 1012.8mb 83f 82f
2:50 3ft 9s 6s 11 13 mph 1012.6mb 83f 82f
1:50 2.5ft 9s 6s 11 13 mph 1012.3mb 83f 81f
12:50 3ft 9s 6s 9
mph
1012.4mb 82f 81f
11:50 3ft 9s 7s 9
mph
1011.7mb 82f 81f
10:50 3ft 9s 6s 11
mph
1011mb 83f 81f
9:50 3.5ft 9s 6s 11 13 mph 1010.7mb 82f 81f
8:50 3.5ft 9s 6s 9 11 mph 1010.5mb 82f 81f
7:50 3.5ft 10s 6s 4 7 mph 1011mb 83f 81f
6:50 3.5ft 9s 6s 9
mph
1011.3mb 83f 81f
5:50 4ft 9s 7s 11
mph
1011.8mb 83f 81f
4:50 3.5ft 9s 6s 11
mph
1012.3mb 83f 82f
3:50 3ft 9s 6s 9
mph
1012.9mb 83f 82f
2:50 3.5ft 8s 6s 4 7 mph 1012.8mb 83f 82f
1:50 3.5ft 8s 6s 4 7 mph 1012.1mb 83f 82f
12:50 3.5ft 9s 6s 7 9 mph 1010.9mb 83f 82f
Qui 04/30 11:50 4ft 9s 6s 9
mph
1010mb 83f 82f
10:50 3.5ft 9s 6s 9
mph
1009mb 83f 83f
9:50 4ft 8s 6s 11 13 mph 1008.9mb 83f 83f
8:50 3.5ft 8s 6s 11 13 mph 1009.5mb 83f 83f
7:50 3.5ft 8s 6s 11 13 mph 1010.1mb 83f 83f
6:50 3ft 9s 6s 11
mph
1010.4mb 83f 83f
5:50 3ft 8s 6s 11 13 mph 1010.7mb 83f 83f
4:50 3.5ft 8s 6s 16
mph
1010.8mb 83f 82f
3:50 3.5ft 8s 6s 9 11 mph 1011mb 83f 82f
2:50 3.5ft 8s 6s 9 11 mph 1011mb 82f 82f
1:50 3.5ft 8s 6s 11
mph
1010.7mb 82f 82f
12:50 3ft 8s 5s 11 13 mph 1010.1mb 82f 82f
11:50 3.5ft 8s 5s 13 16 mph 1009.5mb 82f 82f
10:50 3ft 7s 5s 9 11 mph 1009mb 82f 82f
9:50 3.5ft 8s 6s 11 13 mph 1008.3mb 82f 82f
8:50 3.5ft 8s 5s 13 16 mph 1007.9mb 82f 81f
7:50 3.5ft 8s 6s 11 13 mph 1008.1mb 83f 81f
6:50 3.5ft 8s 6s 11 13 mph 1008.8mb 83f 82f
5:50 3.5ft 8s 5s 9 11 mph 1009.6mb 83f 82f
4:50 3.5ft 8s 6s 11 13 mph 1010.1mb 83f 82f
3:50 3.5ft 8s 5s 9 11 mph 1010.7mb 82f 82f
2:50 3.5ft 8s 5s 11
mph
1010mb 83f 82f
1:50 3.5ft 8s 5s 13 16 mph 1008.8mb 83f 82f
12:50 3.5ft 8s 5s 16 18 mph 1008mb 83f 82f
Qua 04/29 11:50 3.5ft 8s 5s 13 16 mph 1007.5mb 83f 82f
10:50 3ft 8s 5s 13 16 mph 1006.7mb 83f 82f
9:50 3ft 7s 5s 11 13 mph 1006.7mb 84f 82f
8:50 3.5ft 8s 5s 11
mph
1007.2mb 83f 83f
7:50 3.5ft 8s 5s 11 13 mph 1007.5mb 83f 82f
6:50 3.5ft 8s 5s 13 16 mph 1008.3mb 83f 82f
5:50 3.5ft 8s 5s 11 13 mph 1009.3mb 83f 82f